Time;durP1;ratioP1;P1;durP2;ratioP2;P2;SDS_P1;SDS_P2;PMS_P1;PMS_P2;Temp;Humidity;BMP_temperature;BMP_pressure;BME280_temperature;BME280_humidity;BME280_pressure;Samples;Min_cycle;Max_cycle;Signal;HPM_P1;HPM_P2
2023/04/19 00:01:36;;;;;;;13.13;6.05;;;10.20;99.90;;;;;;5130792;27;20477;-73
2023/04/19 00:04:02;;;;;;;22.77;7.78;;;10.10;99.90;;;;;;5131506;27;20118;-73
2023/04/19 00:06:29;;;;;;;18.95;6.97;;;10.10;99.90;;;;;;5130468;28;20841;-73
2023/04/19 00:08:56;;;;;;;17.58;6.15;;;10.10;99.90;;;;;;5131519;28;20025;-73
2023/04/19 00:11:22;;;;;;;24.98;8.02;;;10.00;99.90;;;;;;5130780;28;20111;-74
2023/04/19 00:13:48;;;;;;;22.23;7.63;;;10.00;99.90;;;;;;5131426;28;20050;-74
2023/04/19 00:16:14;;;;;;;16.08;7.30;;;10.00;99.90;;;;;;5130742;28;20436;-74
2023/04/19 00:18:40;;;;;;;18.50;7.65;;;10.00;99.90;;;;;;5131363;28;20067;-74
2023/04/19 00:21:06;;;;;;;24.27;7.43;;;9.90;99.90;;;;;;5131333;28;20113;-73
2023/04/19 00:23:32;;;;;;;12.98;5.43;;;9.90;99.90;;;;;;5130550;28;20065;-73
2023/04/19 00:25:57;;;;;;;21.98;7.28;;;9.90;99.90;;;;;;5131213;28;20020;-74
2023/04/19 00:28:24;;;;;;;18.05;7.50;;;9.90;99.90;;;;;;5133380;27;20030;-75
2023/04/19 00:30:50;;;;;;;19.45;6.68;;;9.80;99.90;;;;;;5135388;27;20171;-73
2023/04/19 00:33:16;;;;;;;18.60;7.75;;;9.80;99.90;;;;;;5135137;27;20072;-73
2023/04/19 00:35:42;;;;;;;27.63;7.68;;;9.80;99.90;;;;;;5135202;27;20185;-74
2023/04/19 00:38:07;;;;;;;22.33;7.65;;;9.70;99.90;;;;;;5135502;27;20035;-74
2023/04/19 00:40:33;;;;;;;24.90;8.70;;;9.60;99.90;;;;;;5134747;27;20364;-74
2023/04/19 00:42:59;;;;;;;23.92;7.72;;;9.60;99.90;;;;;;5135257;27;20067;-74
2023/04/19 00:45:25;;;;;;;21.13;7.47;;;9.70;99.90;;;;;;5134979;27;20363;-74
2023/04/19 00:47:52;;;;;;;23.90;7.18;;;9.60;99.90;;;;;;5135428;27;20031;-75
2023/04/19 00:50:18;;;;;;;24.60;7.40;;;9.60;99.90;;;;;;5134935;27;20049;-74
2023/04/19 00:52:45;;;;;;;17.95;7.20;;;9.60;99.90;;;;;;5135282;27;20378;-74
2023/04/19 00:55:11;;;;;;;21.02;7.43;;;9.50;99.90;;;;;;5134920;27;20529;-74
2023/04/19 00:57:37;;;;;;;16.98;7.70;;;9.50;99.90;;;;;;5135445;27;20525;-74
2023/04/19 01:00:08;;;;;;;14.85;7.30;;;9.50;99.90;;;;;;5135422;27;20027;-74
2023/04/19 01:02:35;;;;;;;16.98;6.90;;;9.50;99.90;;;;;;5134768;27;20027;-75
2023/04/19 01:05:02;;;;;;;21.23;7.50;;;9.40;99.90;;;;;;5134993;27;20027;-74
2023/04/19 01:07:27;;;;;;;18.23;7.97;;;9.40;99.90;;;;;;5134615;27;20043;-74
2023/04/19 01:09:53;;;;;;;17.30;6.57;;;9.40;99.90;;;;;;5135507;27;20159;-74
2023/04/19 01:12:19;;;;;;;21.00;8.15;;;9.30;99.90;;;;;;5134363;27;20031;-73
2023/04/19 01:14:44;;;;;;;19.25;7.50;;;9.30;99.90;;;;;;5134951;27;20107;-74
2023/04/19 01:17:12;;;;;;;16.23;6.63;;;9.30;99.90;;;;;;5134803;27;20488;-73
2023/04/19 01:19:38;;;;;;;21.17;7.75;;;9.30;99.90;;;;;;5134530;27;20026;-73
2023/04/19 01:22:05;;;;;;;16.13;7.95;;;9.30;99.90;;;;;;5134654;27;20325;-73
2023/04/19 01:24:31;;;;;;;16.35;6.95;;;9.30;99.90;;;;;;5115249;27;20073;-73
2023/04/19 01:26:56;;;;;;;18.75;7.45;;;9.30;99.90;;;;;;5134377;27;20030;-74
2023/04/19 01:29:22;;;;;;;19.60;7.90;;;9.30;99.90;;;;;;5134112;27;20038;-75
2023/04/19 01:31:52;;;;;;;18.58;7.30;;;9.20;99.90;;;;;;5134937;27;20063;-74
2023/04/19 01:34:24;;;;;;;22.02;8.07;;;9.20;99.90;;;;;;5134079;27;20405;-75
2023/04/19 01:36:50;;;;;;;16.88;7.75;;;9.10;99.90;;;;;;5134598;27;20464;-74
2023/04/19 01:39:16;;;;;;;20.13;8.35;;;9.20;99.90;;;;;;5133637;27;20034;-74
2023/04/19 01:41:42;;;;;;;13.60;7.43;;;9.20;99.90;;;;;;5138015;27;20047;-73
2023/04/19 01:44:07;;;;;;;19.73;8.43;;;9.10;99.90;;;;;;5134089;27;20110;-73
2023/04/19 01:46:35;;;;;;;18.15;8.68;;;9.10;99.90;;;;;;5133409;27;20043;-72
2023/04/19 01:49:01;;;;;;;22.27;9.20;;;9.20;99.90;;;;;;5134047;27;20034;-74
2023/04/19 01:51:26;;;;;;;18.58;8.25;;;9.10;99.90;;;;;;5133510;27;20377;-75
2023/04/19 01:53:53;;;;;;;18.70;8.13;;;9.10;99.90;;;;;;5134192;27;20022;-74
2023/04/19 01:56:20;;;;;;;16.92;7.97;;;9.10;99.90;;;;;;5133021;27;20038;-73
2023/04/19 01:58:46;;;;;;;26.52;7.82;;;9.10;99.90;;;;;;5133840;27;20086;-73
2023/04/19 02:01:12;;;;;;;14.48;6.97;;;9.10;99.90;;;;;;5114876;27;20030;-74
2023/04/19 02:03:38;;;;;;;17.05;8.05;;;9.10;99.90;;;;;;5132717;27;20878;-73
2023/04/19 02:06:04;;;;;;;26.10;8.07;;;9.10;99.90;;;;;;5133572;27;20027;-74
2023/04/19 02:08:30;;;;;;;19.08;9.13;;;9.10;99.90;;;;;;5114501;27;20027;-74
2023/04/19 02:10:56;;;;;;;23.17;8.13;;;9.10;99.90;;;;;;5133719;27;20059;-74
2023/04/19 02:13:21;;;;;;;20.45;6.90;;;9.10;99.90;;;;;;5133001;27;20064;-76
2023/04/19 02:15:48;;;;;;;22.15;7.97;;;9.00;99.90;;;;;;5133641;27;20023;-74
2023/04/19 02:18:13;;;;;;;15.82;7.70;;;9.10;99.90;;;;;;5133241;27;20039;-73
2023/04/19 02:20:39;;;;;;;11.40;6.38;;;9.00;99.90;;;;;;5132818;27;20031;-73
2023/04/19 02:23:05;;;;;;;17.77;7.82;;;9.00;99.90;;;;;;5133238;27;20375;-74
2023/04/19 02:25:31;;;;;;;17.20;7.32;;;9.00;99.90;;;;;;5132254;27;20168;-73
2023/04/19 02:27:56;;;;;;;20.23;8.65;;;8.90;99.90;;;;;;5133244;27;20058;-73
2023/04/19 02:30:22;;;;;;;15.20;8.35;;;8.90;99.90;;;;;;5132467;27;20027;-73
2023/04/19 02:32:48;;;;;;;18.92;8.43;;;8.90;99.90;;;;;;5132961;27;20035;-74
2023/04/19 02:35:15;;;;;;;15.45;8.23;;;8.90;99.90;;;;;;5133030;27;20429;-75
2023/04/19 02:37:41;;;;;;;16.98;8.98;;;8.90;99.90;;;;;;5132509;27;20115;-73
2023/04/19 02:40:07;;;;;;;19.15;7.53;;;8.90;99.90;;;;;;5114570;27;20488;-73
2023/04/19 02:42:33;;;;;;;13.43;6.60;;;8.80;99.90;;;;;;5132210;27;20172;-74
2023/04/19 02:44:59;;;;;;;21.60;10.27;;;8.70;99.90;;;;;;5133009;27;20118;-74
2023/04/19 02:47:25;;;;;;;23.42;9.85;;;8.80;99.90;;;;;;5132525;27;20039;-74
2023/04/19 02:49:50;;;;;;;21.58;8.98;;;8.80;99.90;;;;;;5131985;27;20034;-74
2023/04/19 02:52:16;;;;;;;21.92;9.88;;;8.80;99.90;;;;;;5133197;27;20092;-73
2023/04/19 02:54:42;;;;;;;19.88;10.32;;;8.80;99.90;;;;;;5132334;27;20023;-73
2023/04/19 02:57:07;;;;;;;22.15;10.48;;;8.80;99.90;;;;;;5132813;27;20027;-73
2023/04/19 02:59:33;;;;;;;16.88;10.75;;;8.70;99.90;;;;;;5132558;27;20055;-74
2023/04/19 03:01:59;;;;;;;21.60;10.98;;;8.70;99.90;;;;;;5132566;27;20049;-74
2023/04/19 03:04:25;;;;;;;22.35;11.02;;;8.70;99.90;;;;;;5132130;27;20479;-74
2023/04/19 03:06:51;;;;;;;20.10;11.57;;;8.70;99.90;;;;;;5132350;27;20046;-74
2023/04/19 03:09:17;;;;;;;22.15;10.90;;;8.70;99.90;;;;;;5132517;27;20019;-73
2023/04/19 03:11:43;;;;;;;20.10;11.82;;;8.70;99.90;;;;;;5132202;27;20065;-74
2023/04/19 03:14:08;;;;;;;22.48;13.15;;;8.70;99.90;;;;;;5132834;27;20027;-73
2023/04/19 03:16:34;;;;;;;24.58;11.88;;;8.70;99.90;;;;;;5132182;27;20027;-74
2023/04/19 03:19:00;;;;;;;26.55;12.73;;;8.70;99.90;;;;;;5132236;27;20424;-74
2023/04/19 03:21:27;;;;;;;29.20;12.93;;;8.70;99.90;;;;;;5131613;27;20024;-74
2023/04/19 03:23:54;;;;;;;23.38;13.35;;;8.70;99.90;;;;;;5132197;27;20054;-74
2023/04/19 03:26:20;;;;;;;29.90;14.18;;;8.60;99.90;;;;;;5132067;27;20054;-73
2023/04/19 03:28:45;;;;;;;24.75;12.38;;;8.60;99.90;;;;;;5131392;27;20019;-74
2023/04/19 03:31:11;;;;;;;25.42;13.50;;;8.60;99.90;;;;;;5132247;27;20102;-74
2023/04/19 03:33:37;;;;;;;28.75;13.70;;;8.60;99.90;;;;;;5131507;27;20435;-74
2023/04/19 03:36:03;;;;;;;23.42;13.63;;;8.50;99.90;;;;;;5113900;27;20068;-74
2023/04/19 03:38:29;;;;;;;22.08;12.82;;;8.60;99.90;;;;;;5131904;27;20027;-74
2023/04/19 03:40:56;;;;;;;22.60;13.40;;;8.60;99.90;;;;;;5132507;27;20027;-73
2023/04/19 03:43:23;;;;;;;26.98;13.27;;;8.60;99.90;;;;;;5133184;27;20023;-75
2023/04/19 03:45:49;;;;;;;23.50;13.07;;;8.60;99.90;;;;;;5132275;27;20038;-73
2023/04/19 03:48:15;;;;;;;26.25;13.45;;;8.60;99.90;;;;;;5113824;27;20084;-74
2023/04/19 03:50:41;;;;;;;26.83;12.05;;;8.60;99.90;;;;;;5132395;27;20027;-74
2023/04/19 03:53:06;;;;;;;23.00;11.75;;;8.60;99.90;;;;;;5132701;27;20023;-74
2023/04/19 03:55:32;;;;;;;23.85;11.80;;;8.60;99.90;;;;;;5132031;27;20027;-74
2023/04/19 03:57:58;;;;;;;20.45;10.57;;;8.60;99.90;;;;;;5131824;27;20478;-74
2023/04/19 04:00:25;;;;;;;25.25;12.77;;;8.60;99.90;;;;;;5131546;27;20439;-74
2023/04/19 04:02:50;;;;;;;24.20;12.50;;;8.60;99.90;;;;;;5131870;27;20055;-73
2023/04/19 04:05:16;;;;;;;23.35;11.73;;;8.60;99.90;;;;;;5131920;27;20076;-73
2023/04/19 04:07:42;;;;;;;20.38;11.45;;;8.60;99.90;;;;;;5131510;28;20039;-74
2023/04/19 04:10:08;;;;;;;24.08;11.98;;;8.60;99.90;;;;;;5131760;28;20023;-73
2023/04/19 04:12:34;;;;;;;25.83;12.55;;;8.60;99.90;;;;;;5131676;28;20034;-73
2023/04/19 04:14:59;;;;;;;24.38;13.13;;;8.60;99.90;;;;;;5131564;28;20491;-73
2023/04/19 04:17:25;;;;;;;25.75;12.93;;;8.60;99.90;;;;;;5131579;28;20062;-77
2023/04/19 04:19:51;;;;;;;22.45;13.40;;;8.60;99.90;;;;;;5131489;28;20019;-74
2023/04/19 04:22:16;;;;;;;28.35;13.05;;;8.60;99.90;;;;;;5131194;28;20483;-74
2023/04/19 04:24:43;;;;;;;32.10;14.07;;;8.60;99.90;;;;;;5131366;28;20043;-73
2023/04/19 04:27:09;;;;;;;26.25;14.10;;;8.60;99.90;;;;;;5112964;28;20035;-73
2023/04/19 04:29:40;;;;;;;25.10;14.35;;;8.60;99.90;;;;;;5131054;28;20030;-73
2023/04/19 04:32:07;;;;;;;26.00;13.80;;;8.60;99.90;;;;;;5131420;28;20034;-73
2023/04/19 04:34:34;;;;;;;22.65;12.90;;;8.70;99.90;;;;;;5130765;28;20103;-74
2023/04/19 04:37:00;;;;;;;26.92;12.88;;;8.70;99.90;;;;;;5113468;28;20478;-74
2023/04/19 04:39:27;;;;;;;27.75;14.70;;;8.70;99.90;;;;;;5131155;28;20023;-72
2023/04/19 04:41:53;;;;;;;27.73;12.50;;;8.70;99.90;;;;;;5130785;28;20349;-74
2023/04/19 04:44:21;;;;;;;26.52;13.55;;;8.80;99.90;;;;;;5131289;28;20033;-73
2023/04/19 04:46:47;;;;;;;27.13;13.88;;;8.80;99.90;;;;;;5130356;28;20027;-75
2023/04/19 04:49:12;;;;;;;27.55;15.00;;;8.80;99.90;;;;;;5131296;28;20020;-74
2023/04/19 04:51:38;;;;;;;27.48;14.07;;;8.70;99.90;;;;;;5130835;28;20391;-74
2023/04/19 04:54:04;;;;;;;22.73;13.38;;;8.70;99.90;;;;;;5112737;28;20023;-74
2023/04/19 04:56:30;;;;;;;30.73;15.05;;;8.60;99.90;;;;;;5130300;28;20053;-75
2023/04/19 04:58:56;;;;;;;26.08;14.75;;;8.60;99.90;;;;;;5130870;28;20069;-73
2023/04/19 05:01:22;;;;;;;28.13;14.55;;;8.60;99.90;;;;;;5131162;28;20031;-74
2023/04/19 05:03:49;;;;;;;29.45;14.68;;;8.60;99.90;;;;;;5130735;28;20023;-74
2023/04/19 05:06:15;;;;;;;31.33;14.20;;;8.60;99.90;;;;;;5130710;28;20024;-73
2023/04/19 05:08:41;;;;;;;27.02;14.52;;;8.50;99.90;;;;;;5130134;28;20026;-73
2023/04/19 05:11:07;;;;;;;24.92;13.25;;;8.60;99.90;;;;;;5112363;28;20398;-73
2023/04/19 05:13:33;;;;;;;26.15;13.75;;;8.50;99.90;;;;;;5131790;27;20477;-74
2023/04/19 05:15:58;;;;;;;23.13;12.98;;;8.60;99.90;;;;;;5116098;27;20107;-73
2023/04/19 05:18:24;;;;;;;29.80;13.48;;;8.60;99.90;;;;;;5134671;27;20105;-73
2023/04/19 05:20:51;;;;;;;27.48;14.00;;;8.60;99.90;;;;;;5134271;27;20023;-74
2023/04/19 05:23:17;;;;;;;25.65;13.98;;;8.60;99.90;;;;;;5134023;27;20119;-74
2023/04/19 05:25:43;;;;;;;24.77;12.80;;;8.70;99.90;;;;;;5115224;27;20087;-74
2023/04/19 05:28:08;;;;;;;29.17;13.00;;;8.70;99.90;;;;;;5134279;27;20122;-74
2023/04/19 05:30:34;;;;;;;23.98;12.95;;;8.70;99.90;;;;;;5133740;27;20039;-75
2023/04/19 05:33:00;;;;;;;23.67;13.18;;;8.80;99.90;;;;;;5134741;27;20035;-73
2023/04/19 05:35:26;;;;;;;21.83;11.60;;;8.80;99.90;;;;;;5134211;27;20019;-74
2023/04/19 05:37:51;;;;;;;26.15;14.20;;;8.80;99.90;;;;;;5133557;27;20138;-74
2023/04/19 05:40:18;;;;;;;24.83;13.65;;;8.80;99.90;;;;;;5134287;27;20120;-74
2023/04/19 05:42:44;;;;;;;21.60;12.38;;;8.80;99.90;;;;;;5133655;27;20132;-74
2023/04/19 05:45:10;;;;;;;22.73;12.90;;;8.80;99.90;;;;;;5134146;27;20019;-74
2023/04/19 05:47:36;;;;;;;23.63;11.65;;;8.90;99.90;;;;;;5114771;27;20386;-75
2023/04/19 05:50:03;;;;;;;26.45;12.52;;;8.80;99.90;;;;;;5133873;27;20027;-74
2023/04/19 05:52:28;;;;;;;20.83;12.20;;;8.80;99.90;;;;;;5133581;27;20084;-74
2023/04/19 05:54:54;;;;;;;23.08;12.23;;;8.80;99.90;;;;;;5133028;27;20432;-73
2023/04/19 05:57:20;;;;;;;22.80;12.57;;;8.80;99.90;;;;;;5133854;27;20031;-73
2023/04/19 05:59:46;;;;;;;31.25;13.02;;;8.80;99.90;;;;;;5133221;27;20024;-74
2023/04/19 06:02:12;;;;;;;24.95;13.20;;;8.80;99.90;;;;;;5133627;27;20027;-72
2023/04/19 06:04:37;;;;;;;21.77;11.45;;;8.80;99.90;;;;;;5133057;27;20083;-74
2023/04/19 06:07:03;;;;;;;23.20;11.88;;;8.90;99.90;;;;;;5133612;27;20036;-75
2023/04/19 06:09:29;;;;;;;19.85;11.13;;;8.90;99.90;;;;;;5115187;27;20035;-72
2023/04/19 06:11:55;;;;;;;21.77;10.68;;;8.80;99.90;;;;;;5132757;27;20027;-73
2023/04/19 06:14:21;;;;;;;18.67;10.98;;;8.90;99.90;;;;;;5115145;27;20020;-73
2023/04/19 06:16:47;;;;;;;21.00;11.43;;;8.90;99.90;;;;;;5132971;27;20056;-72
2023/04/19 06:19:13;;;;;;;20.75;10.48;;;8.90;99.90;;;;;;5133086;27;20412;-74
2023/04/19 06:21:39;;;;;;;23.13;11.40;;;8.90;99.90;;;;;;5132612;27;20019;-74
2023/04/19 06:24:07;;;;;;;23.60;11.48;;;8.90;99.90;;;;;;5133130;27;20191;-74
2023/04/19 06:26:33;;;;;;;22.25;11.10;;;9.00;99.90;;;;;;5131670;27;20038;-74
2023/04/19 06:28:58;;;;;;;24.27;11.32;;;8.90;99.90;;;;;;5133227;27;20027;-74
2023/04/19 06:31:24;;;;;;;20.52;11.38;;;8.90;99.90;;;;;;5133460;27;20403;-74
2023/04/19 06:33:50;;;;;;;20.90;11.27;;;9.00;99.90;;;;;;5132628;27;20058;-74
2023/04/19 06:36:16;;;;;;;21.70;10.48;;;8.90;99.90;;;;;;5133269;27;20019;-75
2023/04/19 06:38:43;;;;;;;24.27;10.75;;;8.90;99.90;;;;;;5132292;27;20102;-75
2023/04/19 06:41:09;;;;;;;22.27;11.10;;;9.00;99.90;;;;;;5114761;27;20110;-72
2023/04/19 06:43:35;;;;;;;20.38;10.07;;;8.90;99.90;;;;;;5132701;27;20019;-76
2023/04/19 06:46:03;;;;;;;25.40;10.60;;;8.90;99.90;;;;;;5132631;27;20088;-74
2023/04/19 06:48:29;;;;;;;21.40;9.95;;;8.90;99.90;;;;;;5132461;27;20043;-73
2023/04/19 06:50:55;;;;;;;19.35;11.00;;;8.90;99.90;;;;;;5132041;27;20101;-74
2023/04/19 06:53:21;;;;;;;23.48;10.90;;;8.90;99.90;;;;;;5114278;27;20188;-74
2023/04/19 06:55:47;;;;;;;19.60;10.25;;;9.00;99.90;;;;;;5131832;27;20424;-74
2023/04/19 06:58:13;;;;;;;20.35;10.05;;;9.00;99.90;;;;;;5132822;27;20119;-74
2023/04/19 07:00:39;;;;;;;20.15;11.20;;;9.00;99.90;;;;;;5132019;27;20084;-75
2023/04/19 07:03:04;;;;;;;19.40;9.82;;;9.00;99.90;;;;;;5113960;27;20046;-74
2023/04/19 07:05:30;;;;;;;26.58;10.20;;;9.10;99.90;;;;;;5132556;27;20031;-74
2023/04/19 07:07:57;;;;;;;20.55;10.10;;;9.10;99.90;;;;;;5131312;27;20489;-74
2023/04/19 07:10:23;;;;;;;37.65;12.20;;;9.10;99.90;;;;;;5132039;27;20019;-73
2023/04/19 07:12:49;;;;;;;104.00;15.70;;;9.20;99.90;;;;;;5131531;27;20459;-73
2023/04/19 07:15:15;;;;;;;38.38;11.82;;;9.20;99.90;;;;;;5131982;27;20053;-75
2023/04/19 07:17:41;;;;;;;27.35;10.48;;;9.20;99.90;;;;;;5131492;27;20062;-75
2023/04/19 07:20:08;;;;;;;30.98;11.38;;;9.20;99.90;;;;;;5132142;27;20100;-74
2023/04/19 07:22:34;;;;;;;20.95;9.52;;;9.20;99.90;;;;;;5132087;27;20577;-72
2023/04/19 07:25:00;;;;;;;18.10;10.18;;;9.30;99.90;;;;;;5131238;27;20071;-74
2023/04/19 07:27:26;;;;;;;22.85;9.57;;;9.30;99.90;;;;;;5132327;27;20120;-74
2023/04/19 07:29:52;;;;;;;17.52;10.50;;;9.30;99.90;;;;;;5113255;27;20027;-74
2023/04/19 07:32:18;;;;;;;20.42;8.95;;;9.30;99.90;;;;;;5132153;27;20023;-75
2023/04/19 07:34:44;;;;;;;19.25;9.57;;;9.30;99.90;;;;;;5112731;27;20348;-75
2023/04/19 07:37:11;;;;;;;18.10;10.52;;;9.30;99.90;;;;;;5131982;27;20035;-74
2023/04/19 07:39:40;;;;;;;23.42;9.50;;;9.30;99.90;;;;;;5131583;27;20425;-78
2023/04/19 07:42:06;;;;;;;13.05;7.60;;;9.30;99.90;;;;;;5131989;27;20397;-75
2023/04/19 07:44:31;;;;;;;21.65;8.77;;;9.30;99.90;;;;;;5132367;27;20073;-74
2023/04/19 07:46:57;;;;;;;18.92;9.02;;;9.30;99.90;;;;;;5131952;27;20039;-73
2023/04/19 07:49:23;;;;;;;18.80;9.02;;;9.40;99.90;;;;;;5114587;27;20134;-74
2023/04/19 07:51:49;;;;;;;16.85;9.02;;;9.40;99.90;;;;;;5113065;27;20491;-74
2023/04/19 07:54:19;;;;;;;22.88;9.40;;;9.40;99.90;;;;;;5132324;27;20027;-74
2023/04/19 07:56:45;;;;;;;24.98;10.68;;;9.40;99.90;;;;;;5131455;27;20215;-75
2023/04/19 07:59:10;;;;;;;19.55;9.70;;;9.50;99.90;;;;;;5131582;27;20034;-74
2023/04/19 08:01:36;;;;;;;25.00;9.75;;;9.50;99.90;;;;;;5131624;27;20027;-74
2023/04/19 08:04:02;;;;;;;23.13;9.52;;;9.60;99.90;;;;;;5130881;27;20353;-74
2023/04/19 08:06:29;;;;;;;20.58;9.55;;;9.60;99.90;;;;;;5132167;27;20031;-74
2023/04/19 08:08:55;;;;;;;22.30;9.75;;;9.70;99.90;;;;;;5131555;27;20031;-74
2023/04/19 08:11:21;;;;;;;18.75;10.43;;;9.60;99.90;;;;;;5132241;28;20344;-75
2023/04/19 08:13:46;;;;;;;25.85;11.27;;;9.70;99.90;;;;;;5131869;28;20025;-74
2023/04/19 08:16:12;;;;;;;19.48;9.48;;;9.80;99.90;;;;;;5131462;28;20096;-75
2023/04/19 08:18:38;;;;;;;23.20;10.68;;;9.70;99.90;;;;;;5131965;28;20034;-74
2023/04/19 08:21:04;;;;;;;20.52;9.73;;;9.70;99.90;;;;;;5131247;28;20024;-74
2023/04/19 08:23:30;;;;;;;21.00;10.57;;;9.70;99.90;;;;;;5131348;28;20031;-73
2023/04/19 08:25:55;;;;;;;23.40;9.75;;;9.70;99.90;;;;;;5131097;28;20110;-73
2023/04/19 08:28:22;;;;;;;24.70;11.10;;;9.70;99.90;;;;;;5131779;28;20100;-74
2023/04/19 08:30:48;;;;;;;20.00;9.75;;;9.70;99.90;;;;;;5131061;28;20020;-75
2023/04/19 08:33:13;;;;;;;94.60;18.13;;;9.70;99.90;;;;;;5131866;28;20042;-74
2023/04/19 08:35:40;;;;;;;24.27;10.30;;;9.70;99.90;;;;;;5131524;28;20027;-74
2023/04/19 08:38:07;;;;;;;23.10;11.88;;;9.80;99.90;;;;;;5131644;28;20114;-74
2023/04/19 08:40:33;;;;;;;23.83;10.80;;;9.80;99.90;;;;;;5131848;28;20041;-75
2023/04/19 08:42:59;;;;;;;19.40;10.77;;;9.90;99.90;;;;;;5131827;28;20534;-75
2023/04/19 08:45:26;;;;;;;26.73;11.77;;;9.90;99.90;;;;;;5131397;28;20027;-75
2023/04/19 08:47:54;;;;;;;21.55;10.10;;;9.90;99.90;;;;;;5131030;27;20089;-74
2023/04/19 08:50:23;;;;;;;24.75;12.40;;;9.90;99.90;;;;;;5135107;27;20121;-74
2023/04/19 08:52:49;;;;;;;24.25;11.25;;;9.90;99.90;;;;;;5134848;27;20023;-75
2023/04/19 08:55:15;;;;;;;27.15;11.48;;;9.90;99.90;;;;;;5135441;27;20064;-73
2023/04/19 08:57:41;;;;;;;26.45;11.90;;;9.90;99.90;;;;;;5135312;27;20035;-74
2023/04/19 09:00:10;;;;;;;22.55;12.02;;;9.90;99.90;;;;;;5134959;27;20109;-75
2023/04/19 09:02:50;;;;;;;28.80;12.50;;;9.90;99.90;;;;;;5117013;27;20068;-75
2023/04/19 09:05:17;;;;;;;24.40;12.38;;;10.00;99.90;;;;;;5135409;27;20169;-74
2023/04/19 09:07:44;;;;;;;25.38;12.85;;;10.10;99.90;;;;;;5116243;27;20454;-76
2023/04/19 09:10:13;;;;;;;22.13;12.52;;;10.00;99.90;;;;;;5116755;27;20027;-74
2023/04/19 09:12:39;;;;;;;24.17;13.13;;;10.10;99.90;;;;;;5135395;27;20027;-74
2023/04/19 09:15:10;;;;;;;24.25;11.93;;;10.00;99.90;;;;;;5134234;27;20839;-74
2023/04/19 09:17:37;;;;;;;21.10;11.85;;;10.10;99.90;;;;;;5135233;27;20045;-75
2023/04/19 09:20:05;;;;;;;27.10;12.60;;;10.10;99.90;;;;;;5134597;27;20027;-74
2023/04/19 09:22:32;;;;;;;29.27;13.05;;;10.00;99.90;;;;;;5134933;27;20031;-74
2023/04/19 09:24:59;;;;;;;24.50;12.40;;;10.10;99.90;;;;;;5133734;27;20078;-75
2023/04/19 09:27:33;;;;;;;26.10;14.10;;;10.10;99.90;;;;;;5134348;27;20483;-73
2023/04/19 09:30:01;;;;;;;29.40;13.45;;;10.10;99.90;;;;;;5133829;27;20537;-73
2023/04/19 09:32:28;;;;;;;22.63;9.35;;;10.20;99.90;;;;;;5134966;27;20030;-74
2023/04/19 09:34:56;;;;;;;31.13;13.40;;;10.20;99.90;;;;;;5134121;27;20325;-74
2023/04/19 09:37:23;;;;;;;24.25;12.63;;;10.20;99.90;;;;;;5116051;27;20432;-73
2023/04/19 09:39:49;;;;;;;27.55;13.02;;;10.20;99.90;;;;;;5134003;27;20321;-73
2023/04/19 09:42:17;;;;;;;23.65;12.57;;;10.10;99.90;;;;;;5134596;27;20110;-74
2023/04/19 09:44:57;;;;;;;21.77;12.50;;;10.20;99.90;;;;;;5133750;27;20350;-74
2023/04/19 09:47:31;;;;;;;56.65;16.25;;;10.30;99.90;;;;;;5133865;27;20040;-73
2023/04/19 09:50:08;;;;;;;27.23;11.80;;;10.30;99.90;;;;;;5133325;27;20377;-74
2023/04/19 09:52:34;;;;;;;25.10;12.98;;;10.30;99.90;;;;;;5133843;27;20027;-74
2023/04/19 09:55:03;;;;;;;24.85;13.80;;;10.40;99.90;;;;;;5133164;27;20060;-74
2023/04/19 09:57:30;;;;;;;27.38;13.90;;;10.50;99.90;;;;;;5133862;27;20023;-74
2023/04/19 09:59:57;;;;;;;25.13;12.50;;;10.50;99.90;;;;;;5132973;27;20027;-73
2023/04/19 10:02:25;;;;;;;28.42;11.80;;;10.50;99.90;;;;;;5133654;27;20027;-73
2023/04/19 10:04:53;;;;;;;25.40;13.18;;;10.40;99.90;;;;;;5133105;27;20100;-74
2023/04/19 10:07:18;;;;;;;29.45;13.68;;;10.50;99.90;;;;;;5114924;27;20064;-73
2023/04/19 10:09:47;;;;;;;22.67;11.85;;;10.50;99.90;;;;;;5114791;27;20129;-73
2023/04/19 10:12:15;;;;;;;26.15;13.82;;;10.50;99.90;;;;;;5133762;27;20118;-73
2023/04/19 10:14:42;;;;;;;32.40;14.10;;;10.60;99.90;;;;;;5133051;27;20122;-72
2023/04/19 10:17:08;;;;;;;27.65;13.73;;;10.50;99.90;;;;;;5132607;27;20125;-73
2023/04/19 10:19:36;;;;;;;24.08;11.75;;;10.40;99.90;;;;;;5133017;27;20027;-74
2023/04/19 10:22:05;;;;;;;27.83;13.55;;;10.30;99.90;;;;;;5132383;27;20528;-73
2023/04/19 10:24:32;;;;;;;23.13;13.35;;;10.30;99.90;;;;;;5132903;27;20047;-74
2023/04/19 10:27:10;;;;;;;26.17;13.63;;;10.40;99.90;;;;;;5132378;27;20143;-73
2023/04/19 10:29:50;;;;;;;26.23;13.32;;;10.30;99.90;;;;;;5133231;27;20136;-73
2023/04/19 10:32:16;;;;;;;30.10;13.63;;;10.30;99.90;;;;;;5133183;27;20027;-74
2023/04/19 10:34:44;;;;;;;25.23;12.27;;;10.40;99.90;;;;;;5132821;27;20463;-73
2023/04/19 10:37:10;;;;;;;29.27;12.68;;;10.20;99.90;;;;;;5132201;27;20027;-74
2023/04/19 10:39:40;;;;;;;29.98;14.13;;;10.30;99.90;;;;;;5132957;27;20028;-74
2023/04/19 10:42:06;;;;;;;27.50;14.98;;;10.40;99.90;;;;;;5113993;27;20035;-74
2023/04/19 10:44:32;;;;;;;28.83;14.88;;;10.40;99.90;;;;;;5133066;27;20349;-74
2023/04/19 10:47:01;;;;;;;24.80;12.10;;;10.30;99.90;;;;;;5131788;27;20035;-75
2023/04/19 10:49:30;;;;;;;32.42;16.25;;;10.50;99.90;;;;;;5114366;27;20080;-73
2023/04/19 10:51:59;;;;;;;26.48;13.45;;;10.50;99.90;;;;;;5132085;27;20034;-73
2023/04/19 10:54:38;;;;;;;24.35;12.60;;;10.50;99.90;;;;;;5132637;27;20468;-74
2023/04/19 10:57:10;;;;;;;41.88;22.08;;;10.40;99.90;;;;;;5132266;27;20076;-74
2023/04/19 10:59:41;;;;;;;35.60;15.98;;;10.40;99.90;;;;;;5133776;27;20357;-73
2023/04/19 11:02:23;;;;;;;28.88;16.33;;;10.50;99.90;;;;;;5132841;27;20073;-74
2023/04/19 11:04:58;;;;;;;27.48;15.15;;;10.50;99.90;;;;;;5133568;27;20091;-74
2023/04/19 11:07:24;;;;;;;35.53;15.65;;;10.50;99.90;;;;;;5133470;27;20410;-74
2023/04/19 11:09:51;;;;;;;24.65;14.73;;;10.50;99.90;;;;;;5133159;27;20035;-73
2023/04/19 11:12:18;;;;;;;31.20;15.70;;;10.50;99.90;;;;;;5132188;27;20467;-74
2023/04/19 11:14:50;;;;;;;32.35;15.75;;;10.50;99.90;;;;;;5133404;27;20038;-73
2023/04/19 11:17:18;;;;;;;34.90;16.55;;;10.50;99.90;;;;;;5132889;27;20130;-74
2023/04/19 11:19:55;;;;;;;43.95;20.40;;;10.30;99.90;;;;;;5133082;27;20460;-74
2023/04/19 11:22:41;;;;;;;25.77;15.40;;;10.30;99.90;;;;;;5114467;27;20024;-73
2023/04/19 11:25:16;;;;;;;35.20;16.67;;;10.40;99.90;;;;;;5132080;27;20058;-74
2023/04/19 11:27:44;;;;;;;30.42;15.75;;;10.40;99.90;;;;;;5133326;27;20039;-73
2023/04/19 11:30:14;;;;;;;31.33;16.38;;;10.50;99.90;;;;;;5132735;27;20112;-74
2023/04/19 11:32:51;;;;;;;30.80;17.88;;;10.50;99.90;;;;;;5132941;27;20030;-73
2023/04/19 11:35:23;;;;;;;37.15;19.85;;;10.60;99.90;;;;;;5133208;27;20095;-74
2023/04/19 11:37:49;;;;;;;30.50;16.85;;;10.60;99.90;;;;;;5133573;27;20387;-74
2023/04/19 11:40:16;;;;;;;35.45;16.30;;;10.60;99.90;;;;;;5113815;27;20076;-75
2023/04/19 11:42:42;;;;;;;28.35;15.75;;;10.60;99.90;;;;;;5132586;27;20487;-74
2023/04/19 11:45:09;;;;;;;28.35;16.23;;;10.60;99.90;;;;;;5132423;27;20027;-74
2023/04/19 11:47:45;;;;;;;30.20;15.18;;;10.70;99.90;;;;;;5133082;27;20409;-74
2023/04/19 11:50:31;;;;;;;26.73;14.77;;;10.60;99.90;;;;;;5131990;27;20027;-75
2023/04/19 11:52:57;;;;;;;34.53;17.73;;;10.60;99.90;;;;;;5132415;27;20019;-74
2023/04/19 11:55:23;;;;;;;32.60;17.75;;;10.60;99.90;;;;;;5132412;27;20015;-73
2023/04/19 11:57:49;;;;;;;33.63;17.13;;;10.60;99.90;;;;;;5132795;27;20038;-75
2023/04/19 12:00:17;;;;;;;28.63;16.30;;;10.70;99.90;;;;;;5132203;27;20617;-74
2023/04/19 12:02:44;;;;;;;34.72;17.25;;;10.60;99.90;;;;;;5132642;27;20035;-74
2023/04/19 12:05:12;;;;;;;34.72;17.83;;;10.70;99.90;;;;;;5132068;27;20050;-73
2023/04/19 12:08:03;;;;;;;28.38;16.30;;;10.70;99.90;;;;;;5132358;27;20040;-73
2023/04/19 12:10:30;;;;;;;33.50;17.55;;;10.70;99.90;;;;;;5131428;27;20500;-72
2023/04/19 12:12:56;;;;;;;34.92;17.60;;;10.70;99.90;;;;;;5112607;28;20019;-77
2023/04/19 12:15:22;;;;;;;37.97;17.02;;;10.80;99.90;;;;;;5131346;28;20027;-73
2023/04/19 12:18:01;;;;;;;31.40;14.95;;;10.80;99.90;;;;;;5131171;28;20077;-74
2023/04/19 12:20:37;;;;;;;30.75;16.60;;;10.80;99.90;;;;;;5131636;28;20034;-73
2023/04/19 12:23:04;;;;;;;30.08;15.40;;;10.80;99.90;;;;;;5131176;27;20019;-74
2023/04/19 12:25:32;;;;;;;31.45;16.80;;;10.90;99.90;;;;;;5135809;27;20464;-74
2023/04/19 12:27:58;;;;;;;37.05;17.70;;;10.80;99.90;;;;;;5134915;27;20141;-77
2023/04/19 12:30:25;;;;;;;31.45;16.33;;;10.90;99.90;;;;;;5135271;27;20020;-75
2023/04/19 12:32:54;;;;;;;37.97;18.58;;;10.80;99.90;;;;;;5135352;27;20387;-74
2023/04/19 12:35:26;;;;;;;32.85;17.42;;;10.90;99.90;;;;;;5134680;27;20058;-73